Latest Weather Observations for Amberley

IDQ60901

Issued at 12:01 pm EST Sunday 26 January 2020 (issued every 10 minutes, with the page automatically refreshed every 10 minutes)

About weather observations | Map of Brisbane area stations | Latest observations for Brisbane area | Other Formats
Station Details ID: 040004 Name: AMBERLEY AMO Lat: -27.63 Lon: 152.71 Height: 24.2 m
Data from the previous 72 hours. | See also: Recent months at Amberley
Date/Time
EST
Temp
°C
App
Temp
°C
Dew
Point
°C
Rel
Hum
%
Delta-T
°C
Wind Press
QNH
hPa
Press
MSL
hPa
Rain since
9am
mm
Dir  Spd
km/h
Gust
km/h
Spd
kts
Gust
kts
26/12:00pm 30.4 31.8 20.3 54 6.7 NE 13 20 7 11 1013.5 1013.4 0.0
26/11:30am 29.7 31.6 19.7 55 6.5 NE 9 20 5 11 1013.7 1013.6 0.0
26/11:00am 29.4 30.5 20.5 58 5.9 NNE 15 22 8 12 1014.0 1013.9 0.0
26/10:30am 28.5 30.2 21.0 64 5.0 NNE 13 17 7 9 1014.1 1014.0 0.0
26/10:00am 28.7 30.9 21.2 64 5.0 ENE 11 15 6 8 1014.3 1014.2 0.0
26/09:30am 28.8 31.3 21.1 63 5.1 NE 9 13 5 7 1014.4 1014.3 0.0
26/09:00am 27.1 27.7 19.4 62 5.0 NNE 15 22 8 12 1014.4 1014.3 0.0
26/08:30am 26.1 27.3 20.7 72 3.5 NE 15 20 8 11 1014.6 1014.5 0.0
26/08:00am 26.5 29.0 21.7 75 3.2 ENE 11 13 6 7 1014.5 1014.4 0.0
26/07:30am 26.2 30.7 22.3 79 2.6 E 2 7 1 4 1014.5 1014.4 0.0
26/07:00am 25.1 29.9 22.2 84 1.9 CALM 0 6 0 3 1014.3 1014.2 0.0
26/06:30am 24.3 28.0 22.2 88 1.4 E 6 7 3 4 1013.9 1013.8 0.0
26/06:00am 23.0 27.7 22.0 94 0.7 CALM 0 0 0 0 1013.7 1013.6 0.0
26/05:30am 22.3 25.5 21.3 94 0.7 E 6 7 3 4 1013.4 1013.3 0.0
26/05:00am 22.2 25.3 21.0 93 0.8 E 6 7 3 4 1013.1 1013.0 0.0
26/04:30am 22.8 27.3 21.6 93 0.8 CALM 0 7 0 4 1012.8 1012.7 0.0
26/04:00am 23.1 27.6 21.5 91 1.1 CALM 0 0 0 0 1012.7 1012.6 0.0
26/03:30am 23.2 27.8 21.8 92 0.9 CALM 0 2 0 1 1012.7 1012.6 0.0
26/03:00am 23.0 26.2 21.3 90 1.1 E 6 7 3 4 1012.5 1012.4 0.0
26/02:30am 23.5 26.4 21.8 90 1.1 E 9 9 5 5 1012.5 1012.4 0.0
26/02:00am 23.4 26.3 21.7 90 1.1 E 9 9 5 5 1012.7 1012.6 0.0
26/01:30am 23.5 26.3 21.6 89 1.3 ENE 9 11 5 6 1013.0 1012.9 0.0
26/01:00am 23.8 26.9 21.5 87 1.5 ENE 7 7 4 4 1013.3 1013.2 0.0
26/12:30am 24.1 26.9 21.6 86 1.7 ENE 9 11 5 6 1013.4 1013.3 0.0
26/12:00am 24.3 26.8 21.8 86 1.7 E 11 11 6 6 1014.0 1013.9 0.0
 
Date/Time
EST
Temp
°C
App
Temp
°C
Dew
Point
°C
Rel
Hum
%
Delta-T
°C
Wind Press
QNH
hPa
Press
MSL
hPa
Rain since
9am
mm
Dir  Spd
km/h
Gust
km/h
Spd
kts
Gust
kts
25/11:30pm 24.5 27.4 21.8 85 1.8 E 9 11 5 6 1014.1 1014.0 0.0
25/11:00pm 24.6 27.5 21.7 84 1.9 E 9 11 5 6 1014.1 1014.0 0.0
25/10:30pm 25.2 28.4 21.7 81 2.3 ENE 7 9 4 5 1014.1 1014.0 0.0
25/10:00pm 25.5 28.3 21.6 79 2.6 ENE 9 13 5 7 1013.8 1013.7 0.0
25/09:30pm 25.7 28.1 21.6 78 2.7 NE 11 13 6 7 1013.9 1013.8 0.0
25/09:00pm 26.2 28.2 21.6 76 3.1 NE 13 15 7 8 1013.5 1013.4 0.0
25/08:30pm 26.5 28.6 21.7 75 3.2 NE 13 17 7 9 1013.1 1013.0 0.0
25/08:00pm 26.6 28.5 22.0 76 3.1 NE 15 20 8 11 1013.2 1013.1 0.0
25/07:30pm 26.6 27.7 22.0 76 3.1 NE 19 24 10 13 1012.7 1012.6 0.0
25/07:00pm 26.9 28.2 21.6 72 3.5 ENE 17 24 9 13 1012.5 1012.4 0.0
25/06:30pm 27.1 27.8 21.6 72 3.7 NE 20 30 11 16 1012.0 1011.9 0.0
25/06:00pm 27.4 28.5 21.2 69 4.1 NE 17 22 9 12 1011.5 1011.4 0.0
25/05:30pm 27.7 27.6 21.5 69 4.1 ENE 24 33 13 18 1011.1 1011.0 0.0
25/05:00pm 28.0 29.3 22.7 73 3.6 ENE 20 30 11 16 1011.0 1010.9 0.0
25/04:30pm 27.9 29.1 22.2 71 3.8 ENE 19 30 10 16 1011.2 1011.1 0.0
25/04:00pm 28.0 28.9 22.0 70 4.0 ENE 20 30 11 16 1011.4 1011.3 0.0
25/03:30pm 28.3 29.2 20.8 63 5.0 E 17 24 9 13 1011.6 1011.5 0.0
25/03:00pm 28.0 29.6 22.2 70 3.9 ENE 17 22 9 12 1011.4 1011.3 0.0
25/02:30pm 28.2 29.9 22.4 71 3.9 ENE 17 24 9 13 1011.7 1011.6 0.0
25/02:00pm 28.8 29.4 22.1 67 4.5 ENE 22 32 12 17 1011.5 1011.4 0.0
25/01:30pm 29.6 29.8 22.8 67 4.6 ENE 26 33 14 18 1011.3 1011.2 0.0
25/01:00pm 30.0 32.7 23.4 67 4.5 N 15 22 8 12 1011.2 1011.1 0.0
25/12:30pm 30.7 32.4 23.4 65 5.0 NE 20 30 11 16 1011.0 1010.9 0.0
25/12:00pm 30.8 32.4 22.9 62 5.4 NE 19 28 10 15 1011.6 1011.5 0.0
25/11:30am 31.4 33.9 23.2 61 5.7 ENE 15 24 8 13 1011.8 1011.7 0.0
25/11:00am 31.3 34.3 23.4 63 5.5 NE 13 19 7 10 1012.1 1012.0 0.0
25/10:30am 30.5 34.0 22.9 64 5.2 N 9 13 5 7 1012.5 1012.4 0.0
25/10:00am 30.1 33.7 23.0 65 4.9 ENE 9 15 5 8 1012.7 1012.6 0.0
25/09:30am 29.7 32.9 21.6 61 5.4 NE 7 11 4 6 1012.8 1012.7 0.0
25/09:00am 28.7 31.5 21.5 65 4.8 NE 9 15 5 8 1012.5 1012.4 4.6
25/08:30am 28.1 32.1 22.1 70 4.0 NNW 4 9 2 5 1012.6 1012.5 4.6
25/08:00am 27.4 31.4 22.1 73 3.6 NW 4 7 2 4 1012.8 1012.7 4.6
25/07:30am 26.4 30.9 22.9 81 2.4 NNW 4 7 2 4 1012.4 1012.3 4.6
25/07:00am 25.3 30.4 22.6 85 1.8 CALM 0 6 0 3 1012.2 1012.1 4.6
25/06:30am 24.7 28.7 22.8 89 1.3 NNW 6 9 3 5 1012.3 1012.2 4.6
25/06:00am 24.2 29.1 22.3 89 1.3 CALM 0 4 0 2 1012.0 1011.9 4.6
25/05:30am 23.9 27.5 22.3 91 1.1 NNW 7 9 4 5 1011.2 1011.1 4.6
25/05:00am 24.2 26.8 22.6 91 1.1 NNW 13 19 7 10 1011.0 1010.9 4.6
25/04:56am 24.3 26.9 22.7 91 1.1 NNW 13 17 7 9 1011.1 1011.0 4.6
25/04:49am 24.2 27.3 22.8 92 0.9 N 11 15 6 8 1011.2 1011.1 4.6
25/04:30am 24.4 26.8 23.0 92 0.9 NE 15 17 8 9 1010.9 1010.8 2.0
25/04:26am 24.4 26.7 22.8 91 1.1 NE 15 17 8 9 1011.0 1010.9 1.4
25/04:02am 25.3 29.1 23.4 89 1.3 E 9 15 5 8 1010.9 1010.8 0.0
25/04:00am 25.4 29.2 23.5 89 1.3 E 9 15 5 8 1010.9 1010.8 0.0
25/03:30am 25.4 29.6 23.5 89 1.3 ESE 7 11 4 6 1010.5 1010.4 0.0
25/03:00am 25.3 28.9 23.0 87 1.6 E 9 11 5 6 1010.5 1010.4 0.0
25/02:30am 26.0 29.9 22.9 83 2.1 ESE 7 7 4 4 1010.4 1010.2 0.0
25/02:00am 26.1 31.3 22.8 82 2.2 CALM 0 0 0 0 1010.5 1010.4 0.0
25/01:30am 26.1 30.0 22.6 81 2.4 ESE 6 7 3 4 1010.7 1010.6 0.0
25/01:00am 26.2 29.5 22.5 80 2.5 ESE 9 11 5 6 1010.8 1010.7 0.0
25/12:30am 26.0 29.8 22.7 82 2.2 ESE 7 9 4 5 1011.0 1010.9 0.0
25/12:00am 26.0 29.7 22.5 81 2.4 ESE 7 9 4 5 1011.2 1011.1 0.0
 
Date/Time
EST
Temp
°C
App
Temp
°C
Dew
Point
°C
Rel
Hum
%
Delta-T
°C
Wind Press
QNH
hPa
Press
MSL
hPa
Rain since
9am
mm
Dir  Spd
km/h
Gust
km/h
Spd
kts
Gust
kts
24/11:30pm 26.3 29.5 22.4 79 2.6 ESE 9 11 5 6 1011.0 1010.9 0.0
24/11:00pm 26.4 29.7 22.5 79 2.6 ESE 9 11 5 6 1011.2 1011.1 0.0
24/10:30pm 26.7 29.5 22.3 77 3.0 E 11 13 6 7 1011.1 1011.0 0.0
24/10:00pm 27.0 29.6 22.6 77 3.0 E 13 19 7 10 1011.0 1010.9 0.0
24/09:30pm 27.2 30.2 22.6 76 3.1 E 11 15 6 8 1011.0 1010.9 0.0
24/09:00pm 27.5 29.9 22.9 76 3.1 E 15 19 8 10 1010.5 1010.4 0.0
24/08:30pm 27.7 29.2 23.1 76 3.1 ENE 20 28 11 15 1010.2 1010.0 0.0
24/08:00pm 28.1 29.7 23.2 74 3.4 ENE 20 26 11 14 1009.8 1009.6 0.0
24/07:30pm 28.4 29.7 23.3 74 3.5 ENE 22 30 12 16 1009.1 1008.9 0.0
24/07:00pm 28.9 30.7 23.6 73 3.7 ENE 20 30 11 16 1008.7 1008.5 0.0
24/06:30pm 29.7 31.7 23.6 69 4.2 ENE 19 26 10 14 1008.6 1008.4 0.0
24/06:00pm 30.6 32.5 23.8 67 4.7 E 20 28 11 15 1008.4 1008.2 0.0
24/05:30pm 31.5 34.0 24.4 66 5.0 ENE 19 24 10 13 1008.2 1008.0 0.0
24/05:00pm 32.2 34.0 24.3 63 5.5 ENE 22 28 12 15 1007.7 1007.5 0.0
24/04:30pm 32.4 34.8 24.2 62 5.7 NE 19 28 10 15 1007.4 1007.2 0.0
24/04:00pm 32.8 35.2 24.6 62 5.8 ENE 20 28 11 15 1007.4 1007.2 0.0
24/03:30pm 33.6 35.4 24.2 58 6.6 NE 22 32 12 17 1007.4 1007.2 0.0
24/03:00pm 33.9 37.3 22.0 49 8.1 SSW 7 13 4 7 1007.9 1007.7 0.0
24/02:30pm 34.4 37.7 22.5 50 8.2 NNE 9 13 5 7 1008.4 1008.2 0.0
24/02:00pm 34.2 37.3 22.9 51 7.8 SW 11 19 6 10 1008.8 1008.6 0.0
24/01:30pm 33.8 36.8 21.9 49 8.1 W 9 13 5 7 1009.2 1009.0 0.0
24/01:00pm 33.8 36.8 21.9 49 8.1 WSW 9 15 5 8 1009.6 1009.4 0.0
24/12:30pm 33.6 36.1 22.4 52 7.7 WNW 13 19 7 10 1010.1 1009.9 0.0
24/12:00pm 33.4 37.2 22.8 53 7.3 NW 7 13 4 7 1010.4 1010.2 0.0
24/11:30am 32.3 35.0 22.1 55 6.9 NNW 11 17 6 9 1011.0 1010.9 0.0
24/11:00am 32.3 34.8 22.4 56 6.8 NNW 13 19 7 10 1011.3 1011.2 0.0
24/10:30am 32.4 34.1 23.1 58 6.4 NW 19 26 10 14 1011.7 1011.6 0.0
24/10:00am 31.2 32.8 22.2 58 6.1 NW 17 26 9 14 1012.0 1011.9 0.0
24/09:30am 31.1 32.8 22.4 60 5.9 NW 17 26 9 14 1012.2 1012.1 0.0
24/09:00am 30.1 32.6 22.5 63 5.2 NW 13 17 7 9 1012.4 1012.3 0.0
24/08:30am 29.7 33.0 23.2 68 4.5 NNW 11 15 6 8 1012.4 1012.3 0.0
24/08:00am 28.7 32.1 22.7 70 4.1 NNE 9 17 5 9 1012.6 1012.5 0.0
24/07:30am 28.0 31.8 22.7 73 3.6 ENE 7 11 4 6 1012.6 1012.5 0.0
24/07:00am 27.5 31.5 23.7 80 2.6 E 9 11 5 6 1012.5 1012.4 0.0
24/06:30am 26.1 29.8 23.2 84 2.0 E 9 13 5 7 1012.1 1012.0 0.0
24/06:00am 25.5 30.6 23.4 88 1.4 ENE 2 7 1 4 1011.6 1011.5 0.0
24/05:30am 24.9 30.1 22.8 88 1.4 CALM 0 0 0 0 1011.5 1011.4 0.0
24/05:00am 25.0 28.9 22.9 88 1.4 ENE 7 9 4 5 1010.7 1010.6 0.0
24/04:30am 25.1 28.7 23.0 88 1.4 ENE 9 13 5 7 1010.3 1010.1 0.0
24/04:00am 25.3 28.6 23.2 88 1.4 ENE 11 13 6 7 1010.0 1009.8 0.0
24/03:30am 25.3 28.5 23.0 87 1.6 ENE 11 13 6 7 1009.8 1009.6 0.0
24/03:00am 25.6 28.7 22.9 85 1.8 NE 11 15 6 8 1009.8 1009.6 0.0
24/02:30am 26.0 29.5 22.9 83 2.1 ENE 9 13 5 7 1010.2 1010.0 0.0
24/02:00am 26.0 29.6 23.1 84 2.0 E 9 11 5 6 1010.7 1010.6 0.0
24/01:30am 25.8 29.9 23.3 86 1.7 E 7 9 4 5 1011.1 1011.0 0.0
24/01:00am 25.8 29.9 23.3 86 1.7 E 7 11 4 6 1011.3 1011.2 0.0
24/12:30am 25.2 28.7 22.9 87 1.6 ENE 9 9 5 5 1011.5 1011.4 0.0
24/12:00am 25.8 29.3 22.9 84 2.0 ENE 9 11 5 6 1011.1 1011.0 0.0
 
Date/Time
EST
Temp
°C
App
Temp
°C
Dew
Point
°C
Rel
Hum
%
Delta-T
°C
Wind Press
QNH
hPa
Press
MSL
hPa
Rain since
9am
mm
Dir  Spd
km/h
Gust
km/h
Spd
kts
Gust
kts
23/11:30pm 26.0 29.2 23.1 84 2.0 ENE 11 13 6 7 1011.0 1010.9 0.0
23/11:00pm 26.2 29.4 23.1 83 2.1 ENE 11 15 6 8 1010.9 1010.8 0.0
23/10:30pm 26.6 29.2 23.3 82 2.3 ENE 15 17 8 9 1010.7 1010.6 0.0
23/10:00pm 26.6 30.0 23.3 82 2.3 ENE 11 15 6 8 1011.1 1011.0 0.0
23/09:30pm 26.8 30.5 23.3 81 2.4 E 9 13 5 7 1011.2 1011.1 0.0
23/09:00pm 27.1 30.8 23.3 80 2.6 ENE 9 13 5 7 1010.9 1010.8 0.0
23/08:30pm 27.5 30.6 23.5 79 2.7 ENE 13 17 7 9 1010.5 1010.4 0.0
23/08:00pm 27.7 30.0 23.5 78 2.9 ENE 17 24 9 13 1010.1 1009.9 0.0
23/07:30pm 28.2 30.2 23.6 76 3.2 ENE 19 24 10 13 1009.9 1009.7 0.0
23/07:00pm 28.6 30.5 23.7 75 3.4 ENE 20 28 11 15 1009.5 1009.3 0.0
23/06:30pm 29.4 31.4 23.6 71 4.0 ENE 19 24 10 13 1009.4 1009.2 0.0
23/06:00pm 29.9 31.3 23.6 69 4.4 NE 22 30 12 16 1008.7 1008.5 0.0
23/05:30pm 30.3 31.8 23.7 68 4.6 NE 22 30 12 16 1008.0 1007.8 0.0
23/05:00pm 30.6 31.2 23.5 66 4.9 ENE 26 35 14 19 1007.7 1007.5 0.0
23/04:30pm 31.6 33.1 23.7 63 5.5 NE 22 32 12 17 1007.7 1007.5 0.0
23/04:00pm 32.4 33.5 23.6 59 6.1 NE 24 28 13 15 1008.0 1007.8 0.0
23/03:30pm 32.0 32.4 23.8 62 5.7 ENE 28 33 15 18 1008.1 1007.9 0.0
23/03:00pm 31.7 32.3 23.5 62 5.7 ENE 26 33 14 18 1008.1 1007.9 0.0
23/02:30pm 31.9 32.4 24.0 63 5.5 ENE 28 35 15 19 1008.7 1008.5 0.0
23/02:00pm 31.7 32.8 23.0 60 6.0 ENE 22 30 12 16 1009.3 1009.1 0.0
23/01:30pm 31.1 31.2 21.9 58 6.2 NE 24 30 13 16 1009.7 1009.5 0.0
23/01:00pm 31.3 32.0 22.3 58 6.1 ENE 22 30 12 16 1010.1 1009.9 0.0
23/12:30pm 29.9 28.9 22.6 65 5.0 NE 32 46 17 25 1011.1 1011.0 0.0
23/12:16pm 31.5 31.5 23.1 61 5.8 NE 28 35 15 19 1011.0 1010.9 0.0

Latest Capital City Observations: Canberra | Sydney | Melbourne | Brisbane | Adelaide | Perth | Hobart | Darwin

Other formats

Comma delimited format used in spreadsheet applications
http://www.bom.gov.au/fwo/IDQ60901/IDQ60901.94568.axf

JavaScript Object Notation format (JSON) in row-major order
http://www.bom.gov.au/fwo/IDQ60901/IDQ60901.94568.json

Data quality

Most of these data are generated automatically and are frequently updated. Quality checks on data are not normally performed. It is possible for incorrect values to appear. Refer to information at About Latest Weather Observations and please check the disclaimer before using these data.